Terminal Aerodrome Forecast
Issued by NWS Omaha/Valley, NE

Home | Current Version | Previous Version | Text Only | Print | Product List | Glossary On
Versions: 1 2 3 4 5 6 7 8 9 10 11 12 13
000
FTUS43 KOAX 262321
TAFLNK
TAF
KLNK 262321Z 2700/2724 02005KT P6SM FEW250
     FM271000 05004KT P6SM VCTS BKN100CB
     FM271200 04004KT P6SM SHRA VCTS OVC090CB
     FM271800 04007KT P6SM SHRA VCTS OVC035CB
     FM272100 01010KT P6SM BKN060=

USA.gov is the U.S. government's official web portal to all federal, state and local government web resources and services.